AUL252 UMKK-UUEE
Flight info
| Callsign | AUL252 |
|---|---|
| Flight time | N/A |
| Altitude | 35000 |
| Route | PELUG3M PELUG DCT OTVOV DCT KEDUX DCT PIVAX DCT PIRUX DCT PISIM DCT PIDIN DCT ARANS/K0846F350 DCT PISIS DCT MIGTU T73 NAMIN NAMIN3F |
| Aircraft | B738/M-SDE2E3FGHIRWXY/LB1 |
Departure
| Time | 2026-05-06 16:32 |
|---|---|
| Airport | Khrabrovo Airport (UMKK) |
Arrival
| Time | N/A |
|---|---|
| Airport | Sheremetyevo International Airport (UUEE) |
| Time | Latitude | Longitude | Altitude | Speed | Heading |
|---|---|---|---|---|---|
| 2026-05-06 16:00 | 54.88415 | 20.58646 | 26 ft | 0 kts | 155° |
| 2026-05-06 16:23 | 54.88420 | 20.58642 | 26 ft | 4 kts | 155° |
| 2026-05-06 16:23 | 54.88445 | 20.58622 | 29 ft | 4 kts | 155° |
| 2026-05-06 16:23 | 54.88463 | 20.58607 | 29 ft | 4 kts | 181° |
| 2026-05-06 16:23 | 54.88476 | 20.58624 | 28 ft | 3 kts | 245° |
| 2026-05-06 16:24 | 54.88486 | 20.58663 | 30 ft | 2 kts | 245° |
| 2026-05-06 16:24 | 54.88486 | 20.58664 | 30 ft | 1 kts | 245° |
| 2026-05-06 16:28 | 54.88479 | 20.58637 | 31 ft | 6 kts | 245° |
| 2026-05-06 16:28 | 54.88456 | 20.58551 | 29 ft | 9 kts | 245° |
| 2026-05-06 16:28 | 54.88426 | 20.58442 | 31 ft | 10 kts | 242° |
| 2026-05-06 16:28 | 54.88388 | 20.58333 | 29 ft | 11 kts | 238° |
| 2026-05-06 16:29 | 54.88348 | 20.58220 | 26 ft | 11 kts | 238° |
| 2026-05-06 16:29 | 54.88302 | 20.58096 | 27 ft | 13 kts | 244° |
| 2026-05-06 16:29 | 54.88260 | 20.57932 | 28 ft | 16 kts | 246° |
| 2026-05-06 16:29 | 54.88233 | 20.57755 | 26 ft | 15 kts | 296° |
| 2026-05-06 16:30 | 54.88320 | 20.57672 | 25 ft | 14 kts | 335° |
| 2026-05-06 16:30 | 54.88378 | 20.57627 | 25 ft | 14 kts | 336° |
| 2026-05-06 16:30 | 54.88490 | 20.57541 | 22 ft | 14 kts | 335° |
| 2026-05-06 16:30 | 54.88570 | 20.57559 | 19 ft | 12 kts | 60° |
| 2026-05-06 16:31 | 54.88587 | 20.57622 | 19 ft | 2 kts | 66° |
| 2026-05-06 16:31 | 54.88595 | 20.57656 | 19 ft | 8 kts | 66° |
| 2026-05-06 16:31 | 54.88702 | 20.58068 | 22 ft | 75 kts | 65° |
| 2026-05-06 16:31 | 54.89017 | 20.59271 | 26 ft | 141 kts | 65° |
| 2026-05-06 16:32 | 54.89484 | 20.61124 | 118 ft | 187 kts | 64° |
| 2026-05-06 16:32 | 54.90017 | 20.63115 | 1082 ft | 181 kts | 68° |
| 2026-05-06 16:32 | 54.90512 | 20.64988 | 2254 ft | 169 kts | 72° |
| 2026-05-06 16:32 | 54.91016 | 20.67042 | 2645 ft | 202 kts | 71° |
| 2026-05-06 16:33 | 54.91608 | 20.69407 | 3033 ft | 221 kts | 71° |
| 2026-05-06 16:33 | 54.92418 | 20.71836 | 3396 ft | 247 kts | 49° |
| 2026-05-06 16:33 | 54.93980 | 20.73260 | 3910 ft | 264 kts | 8° |
| 2026-05-06 16:34 | 54.97165 | 20.71152 | 5455 ft | 249 kts | 306° |
| 2026-05-06 16:34 | 54.98297 | 20.68731 | 5983 ft | 265 kts | 303° |
| 2026-05-06 16:34 | 54.99458 | 20.66177 | 6774 ft | 272 kts | 303° |
| 2026-05-06 16:34 | 55.00238 | 20.64456 | 7340 ft | 274 kts | 303° |
| 2026-05-06 16:35 | 55.01829 | 20.60954 | 8430 ft | 283 kts | 303° |
| 2026-05-06 16:35 | 55.03061 | 20.58260 | 9345 ft | 284 kts | 303° |
| 2026-05-06 16:35 | 55.04300 | 20.55557 | 10201 ft | 289 kts | 303° |
| 2026-05-06 16:35 | 55.05600 | 20.52713 | 10504 ft | 313 kts | 303° |
| 2026-05-06 16:36 | 55.06523 | 20.50688 | 10638 ft | 330 kts | 303° |
| 2026-05-06 16:36 | 55.08010 | 20.47438 | 10836 ft | 354 kts | 303° |
| 2026-05-06 16:36 | 55.09589 | 20.44002 | 11295 ft | 367 kts | 304° |
| 2026-05-06 16:36 | 55.11202 | 20.40496 | 12019 ft | 372 kts | 303° |
| 2026-05-06 16:37 | 55.12826 | 20.36960 | 12830 ft | 374 kts | 304° |
| 2026-05-06 16:37 | 55.14682 | 20.33697 | 13545 ft | 389 kts | 320° |
| 2026-05-06 16:37 | 55.17225 | 20.31857 | 14228 ft | 407 kts | 346° |
| 2026-05-06 16:37 | 55.20079 | 20.31585 | 14961 ft | 413 kts | 355° |
| 2026-05-06 16:38 | 55.22964 | 20.31442 | 15579 ft | 417 kts | 353° |
| 2026-05-06 16:38 | 55.25885 | 20.31198 | 16190 ft | 422 kts | 353° |
| 2026-05-06 16:38 | 55.28794 | 20.30935 | 16823 ft | 425 kts | 353° |
| 2026-05-06 16:38 | 55.31758 | 20.30659 | 17472 ft | 428 kts | 353° |
| 2026-05-06 16:39 | 55.34791 | 20.30375 | 18081 ft | 434 kts | 353° |
| 2026-05-06 16:39 | 55.37790 | 20.30094 | 18521 ft | 440 kts | 353° |
| 2026-05-06 16:39 | 55.40860 | 20.29809 | 19086 ft | 442 kts | 353° |
| 2026-05-06 16:39 | 55.43931 | 20.29518 | 19751 ft | 441 kts | 352° |
| 2026-05-06 16:40 | 55.44964 | 20.29359 | 19965 ft | 440 kts | 349° |